Time;durP1;ratioP1;P1;durP2;ratioP2;P2;SDS_P1;SDS_P2;PMS_P1;PMS_P2;Temp;Humidity;BMP_temperature;BMP_pressure;BME280_temperature;BME280_humidity;BME280_pressure;Samples;Min_cycle;Max_cycle;Signal;HPM_P1;HPM_P2
2023/02/16 00:02:06;;;;;;;71.00;40.42;;;0.80;41.50;;;;;;7370593;19;20018;-68
2023/02/16 00:04:36;;;;;;;75.90;41.35;;;0.80;42.00;;;;;;7368009;19;20019;-68
2023/02/16 00:07:05;;;;;;;74.55;40.40;;;0.80;42.70;;;;;;7387660;19;20504;-68
2023/02/16 00:09:35;;;;;;;69.13;39.30;;;0.70;42.60;;;;;;7365457;19;20086;-67
2023/02/16 00:14:54;;;;;;;74.57;38.53;;;0.70;42.80;;;;;;7364726;19;20356;-67
2023/02/16 00:17:27;;;;;;;72.03;40.13;;;0.70;44.30;;;;;;7363474;19;20011;-68
2023/02/16 00:19:57;;;;;;;69.43;38.78;;;0.70;44.50;;;;;;7365576;19;20014;-68
2023/02/16 00:22:27;;;;;;;75.07;40.40;;;0.70;44.80;;;;;;7385379;19;20014;-68
2023/02/16 00:24:56;;;;;;;66.78;38.38;;;0.80;45.50;;;;;;7363515;19;20014;-68
2023/02/16 00:27:26;;;;;;;78.22;40.40;;;0.60;44.30;;;;;;7364684;19;20089;-68
2023/02/16 00:29:56;;;;;;;74.35;40.35;;;0.60;44.40;;;;;;7365068;19;20018;-67
2023/02/16 00:32:28;;;;;;;67.07;39.47;;;0.50;44.50;;;;;;7363367;19;20616;-67
2023/02/16 00:34:58;;;;;;;65.90;38.20;;;0.40;44.30;;;;;;7364446;19;20107;-66
2023/02/16 00:37:28;;;;;;;73.50;38.38;;;0.30;44.10;;;;;;7388905;19;20014;-67
2023/02/16 00:39:59;;;;;;;68.63;38.80;;;0.40;44.60;;;;;;7363967;19;20014;-67
2023/02/16 00:42:33;;;;;;;72.28;37.35;;;0.40;45.30;;;;;;7385938;19;20022;-67
2023/02/16 00:45:03;;;;;;;72.07;39.17;;;0.40;45.30;;;;;;7363943;19;20023;-67
2023/02/16 00:47:39;;;;;;;65.40;36.80;;;0.40;46.10;;;;;;7363433;19;20133;-67
2023/02/16 00:50:16;;;;;;;69.88;39.10;;;0.40;46.00;;;;;;7363646;19;20061;-66
2023/02/16 00:52:47;;;;;;;67.15;37.80;;;0.40;45.90;;;;;;7364728;19;20359;-68
2023/02/16 00:55:20;;;;;;;76.70;39.80;;;0.30;46.30;;;;;;7361423;19;20653;-67
2023/02/16 00:57:53;;;;;;;75.22;40.40;;;0.40;46.50;;;;;;7362620;19;20018;-67
2023/02/16 01:00:26;;;;;;;75.28;39.88;;;0.50;47.40;;;;;;7382921;19;20011;-66
2023/02/16 01:03:03;;;;;;;73.50;40.80;;;0.50;47.30;;;;;;7364585;19;20506;-67
2023/02/16 01:05:33;;;;;;;78.57;40.45;;;0.40;47.10;;;;;;7361724;19;20078;-66
2023/02/16 01:13:31;;;;;;;75.35;41.28;;;0.40;47.40;;;;;;7362899;19;20394;-67
2023/02/16 01:16:01;;;;;;;69.97;39.17;;;0.30;47.40;;;;;;7360991;19;20110;-67
2023/02/16 01:18:33;;;;;;;77.93;39.45;;;0.30;47.60;;;;;;7381603;19;20098;-66
2023/02/16 01:21:03;;;;;;;73.47;39.17;;;0.30;47.40;;;;;;7364279;19;20344;-67
2023/02/16 01:23:34;;;;;;;72.57;41.47;;;0.30;48.00;;;;;;7361352;19;20022;-67
2023/02/16 01:26:04;;;;;;;74.25;40.20;;;0.30;48.70;;;;;;7361516;19;20026;-67
2023/02/16 01:28:37;;;;;;;71.95;39.35;;;0.30;48.40;;;;;;7364397;19;20013;-67
2023/02/16 01:31:07;;;;;;;77.85;42.05;;;0.30;48.70;;;;;;7363094;19;20014;-66
2023/02/16 01:33:40;;;;;;;78.63;41.97;;;0.40;49.20;;;;;;7361150;19;20015;-67
2023/02/16 01:36:24;;;;;;;76.75;41.55;;;0.40;49.50;;;;;;7382833;19;20010;-67
2023/02/16 01:38:54;;;;;;;81.65;41.95;;;0.40;49.20;;;;;;7361816;19;20037;-67
2023/02/16 01:41:38;;;;;;;76.97;40.08;;;0.40;49.30;;;;;;7360753;19;20074;-67
2023/02/16 01:44:14;;;;;;;70.53;39.80;;;0.40;49.30;;;;;;7361566;19;20050;-67
2023/02/16 01:46:50;;;;;;;70.47;38.70;;;0.30;48.80;;;;;;7361103;19;20019;-69
2023/02/16 01:49:23;;;;;;;70.53;38.85;;;0.30;49.20;;;;;;7361971;19;20015;-67
2023/02/16 01:51:58;;;;;;;73.80;39.05;;;0.30;49.20;;;;;;7364935;19;20023;-68
2023/02/16 01:54:37;;;;;;;71.60;36.97;;;0.40;49.70;;;;;;7386271;19;20821;-67
2023/02/16 01:57:16;;;;;;;69.13;38.08;;;0.50;50.00;;;;;;7360405;19;20021;-66
2023/02/16 02:00:03;;;;;;;70.97;36.70;;;0.60;50.70;;;;;;7362921;19;20032;-67
2023/02/16 02:02:37;;;;;;;65.47;34.70;;;0.60;49.60;;;;;;7359523;19;20018;-66
2023/02/16 02:08:11;;;;;;;59.83;32.75;;;0.60;49.10;;;;;;7361028;19;20547;-66
2023/02/16 02:10:51;;;;;;;62.83;34.35;;;0.60;49.50;;;;;;7359554;19;20010;-67
2023/02/16 02:13:26;;;;;;;64.35;33.38;;;0.50;48.60;;;;;;7360684;19;20014;-67
2023/02/16 02:15:56;;;;;;;54.47;31.23;;;0.60;49.50;;;;;;7360111;19;20013;-68
2023/02/16 02:18:26;;;;;;;54.88;31.52;;;0.60;49.20;;;;;;7382135;19;20018;-67
2023/02/16 02:24:38;;;;;;;51.85;30.33;;;0.50;48.80;;;;;;7359076;19;20015;-66
2023/02/16 02:27:23;;;;;;;52.00;28.73;;;0.50;48.00;;;;;;7359816;19;20380;-66
2023/02/16 02:30:14;;;;;;;55.25;33.10;;;0.40;46.90;;;;;;7363209;19;20019;-67
2023/02/16 02:32:56;;;;;;;60.75;34.00;;;0.20;46.30;;;;;;7366598;19;20017;-66
2023/02/16 02:35:40;;;;;;;61.13;32.90;;;0.10;46.20;;;;;;7367502;19;20018;-65
2023/02/16 02:38:16;;;;;;;62.65;34.25;;;0.00;45.70;;;;;;7366157;19;20011;-66
2023/02/16 02:41:00;;;;;;;62.95;34.75;;;-0.10;45.30;;;;;;7366819;19;20507;-66
2023/02/16 02:43:40;;;;;;;52.47;30.48;;;-0.10;45.40;;;;;;7367875;19;20396;-66
2023/02/16 02:46:14;;;;;;;51.28;29.75;;;-0.10;46.10;;;;;;7369193;19;20021;-66
2023/02/16 02:48:44;;;;;;;52.70;28.58;;;0.00;46.20;;;;;;7367455;19;20015;-66
2023/02/16 02:51:32;;;;;;;50.10;28.17;;;0.00;46.20;;;;;;7390805;19;20014;-67
2023/02/16 03:02:25;;;;;;;44.47;26.55;;;0.40;46.60;;;;;;7366592;19;20027;-67
2023/02/16 03:04:58;;;;;;;46.17;25.75;;;0.30;45.40;;;;;;7366336;19;20482;-66
2023/02/16 03:07:45;;;;;;;45.55;26.40;;;0.30;45.30;;;;;;7366054;19;20470;-66
2023/02/16 03:13:00;;;;;;;44.88;25.63;;;0.40;44.30;;;;;;7366736;19;20018;-67
2023/02/16 03:15:33;;;;;;;48.55;26.42;;;0.40;44.50;;;;;;7386988;19;20462;-67
2023/02/16 03:31:45;;;;;;;43.65;23.45;;;0.40;40.20;;;;;;7365692;19;20695;-66
2023/02/16 03:34:15;;;;;;;40.17;22.83;;;0.50;39.90;;;;;;7365776;19;20584;-66
2023/02/16 03:36:48;;;;;;;41.08;23.05;;;0.50;39.80;;;;;;7366603;19;20018;-66
2023/02/16 03:39:19;;;;;;;39.03;21.58;;;0.50;38.50;;;;;;7387321;19;20085;-66
2023/02/16 03:41:52;;;;;;;39.58;21.92;;;0.30;37.80;;;;;;7368314;19;20011;-66
2023/02/16 03:44:23;;;;;;;37.10;21.70;;;0.40;38.40;;;;;;7365015;19;20029;-66
2023/02/16 03:46:56;;;;;;;40.25;21.85;;;0.40;38.30;;;;;;7365765;19;20007;-65
2023/02/16 03:49:25;;;;;;;36.17;22.27;;;0.40;36.80;;;;;;7366003;19;20014;-66
2023/02/16 03:51:55;;;;;;;41.80;24.88;;;0.20;35.60;;;;;;7367549;19;20024;-66
2023/02/16 03:54:25;;;;;;;53.90;27.75;;;0.10;35.40;;;;;;7390271;19;20019;-67
2023/02/16 03:56:55;;;;;;;45.28;26.00;;;-0.10;35.20;;;;;;7364107;19;20013;-66
2023/02/16 03:59:25;;;;;;;46.60;26.17;;;-0.10;35.60;;;;;;7365269;19;20038;-66
2023/02/16 04:01:58;;;;;;;45.40;28.10;;;-0.10;36.30;;;;;;7365581;19;20042;-66
2023/02/16 04:04:27;;;;;;;46.55;27.10;;;-0.20;35.70;;;;;;7364259;19;20011;-66
2023/02/16 04:06:57;;;;;;;46.63;26.80;;;-0.30;36.00;;;;;;7364124;19;20042;-66
2023/02/16 04:09:27;;;;;;;45.90;26.45;;;-0.30;36.60;;;;;;7387327;19;20094;-67
2023/02/16 04:14:39;;;;;;;38.92;22.38;;;-0.30;37.50;;;;;;7363481;19;20021;-66
2023/02/16 04:17:15;;;;;;;35.42;21.55;;;-0.10;38.50;;;;;;7363785;19;20010;-66
2023/02/16 04:19:44;;;;;;;42.28;21.75;;;0.00;39.00;;;;;;7365587;19;20014;-66
2023/02/16 04:22:14;;;;;;;43.85;23.65;;;0.20;38.90;;;;;;7365965;19;20018;-67
2023/02/16 04:24:44;;;;;;;38.88;23.35;;;0.20;38.30;;;;;;7364492;19;20028;-66
2023/02/16 04:27:14;;;;;;;41.40;23.48;;;0.30;38.30;;;;;;7384713;19;20018;-66
2023/02/16 04:29:43;;;;;;;39.63;21.80;;;0.50;38.20;;;;;;7364251;19;20010;-66
2023/02/16 04:32:16;;;;;;;33.67;19.20;;;0.50;37.50;;;;;;7364271;19;20050;-66
2023/02/16 04:34:46;;;;;;;34.50;20.20;;;0.50;35.30;;;;;;7362429;19;20495;-66
2023/02/16 04:37:16;;;;;;;32.90;21.02;;;0.50;35.00;;;;;;7364793;19;20015;-66
2023/02/16 04:39:46;;;;;;;34.60;20.30;;;0.50;33.70;;;;;;7364212;19;20033;-67
2023/02/16 04:42:15;;;;;;;35.10;21.42;;;0.50;32.40;;;;;;7378153;19;20114;-65
2023/02/16 04:44:45;;;;;;;35.78;20.58;;;0.60;32.20;;;;;;7362651;19;20870;-66
2023/02/16 04:47:18;;;;;;;32.95;19.40;;;0.60;30.50;;;;;;7362583;19;20074;-67
2023/02/16 04:49:48;;;;;;;33.38;19.75;;;0.50;29.90;;;;;;7358460;19;20022;-66
2023/02/16 04:52:19;;;;;;;30.92;20.13;;;0.50;30.10;;;;;;7361005;19;20033;-66
2023/02/16 04:54:48;;;;;;;33.42;19.77;;;0.50;30.10;;;;;;7363748;19;20021;-67
2023/02/16 04:57:20;;;;;;;35.25;19.73;;;0.60;30.10;;;;;;7380787;19;20086;-67
2023/02/16 04:59:50;;;;;;;34.45;19.70;;;0.50;29.20;;;;;;7358883;19;20565;-67
2023/02/16 05:02:22;;;;;;;36.60;20.23;;;0.30;28.50;;;;;;7360643;19;20010;-67
2023/02/16 05:04:52;;;;;;;33.80;18.85;;;0.40;29.10;;;;;;7360458;19;20018;-67
2023/02/16 05:07:21;;;;;;;33.35;20.10;;;0.30;30.00;;;;;;7361587;19;20010;-66
2023/02/16 05:09:52;;;;;;;34.30;19.67;;;0.20;29.10;;;;;;7357776;19;20023;-66
2023/02/16 05:15:04;;;;;;;35.28;20.25;;;0.10;29.60;;;;;;7363817;19;20010;-66
2023/02/16 05:17:37;;;;;;;39.38;21.30;;;0.10;29.90;;;;;;7359882;19;20014;-66
2023/02/16 05:20:08;;;;;;;34.15;20.10;;;0.10;30.20;;;;;;7361349;19;20053;-66
2023/02/16 05:22:38;;;;;;;34.28;19.70;;;0.10;30.50;;;;;;7361249;19;20479;-65
2023/02/16 05:25:08;;;;;;;31.08;20.25;;;0.10;31.10;;;;;;7364712;19;20014;-66
2023/02/16 05:27:38;;;;;;;32.28;19.92;;;0.10;32.50;;;;;;7362562;19;20015;-65
2023/02/16 05:30:09;;;;;;;33.60;20.45;;;0.20;31.50;;;;;;7384436;19;20022;-66
2023/02/16 05:32:41;;;;;;;34.13;19.27;;;0.10;32.10;;;;;;7362624;19;20014;-66
2023/02/16 05:35:11;;;;;;;35.10;20.00;;;0.00;31.50;;;;;;7363721;19;20474;-66
2023/02/16 05:37:41;;;;;;;32.83;20.00;;;0.10;31.70;;;;;;7361420;19;20097;-66
2023/02/16 05:40:12;;;;;;;33.95;21.45;;;0.10;31.70;;;;;;7359445;19;20010;-67
2023/02/16 05:42:42;;;;;;;34.55;20.20;;;0.10;31.60;;;;;;7361084;19;20025;-66
2023/02/16 05:45:12;;;;;;;35.15;21.30;;;0.10;31.60;;;;;;7386534;19;20040;-65
2023/02/16 05:47:45;;;;;;;37.47;21.25;;;-0.10;31.20;;;;;;7362417;19;20007;-66
2023/02/16 05:50:15;;;;;;;36.87;20.03;;;0.00;32.00;;;;;;7359539;19;20010;-66
2023/02/16 05:52:45;;;;;;;39.42;20.65;;;0.00;31.90;;;;;;7360030;19;20542;-66
2023/02/16 05:55:15;;;;;;;34.17;20.42;;;0.00;31.60;;;;;;7363846;19;20015;-66
2023/02/16 05:57:45;;;;;;;32.92;19.95;;;0.10;31.60;;;;;;7360201;19;20019;-67
2023/02/16 06:00:16;;;;;;;34.47;21.33;;;0.00;31.50;;;;;;7379568;19;20018;-66
2023/02/16 06:02:49;;;;;;;34.05;19.65;;;0.00;31.90;;;;;;7360289;19;20478;-66
2023/02/16 06:05:19;;;;;;;30.85;19.98;;;0.10;32.10;;;;;;7358801;19;20018;-66
2023/02/16 06:07:49;;;;;;;35.53;19.63;;;0.20;32.00;;;;;;7359894;19;20014;-66
2023/02/16 06:10:19;;;;;;;29.85;19.08;;;0.30;31.30;;;;;;7357897;19;20014;-66
2023/02/16 06:12:48;;;;;;;35.55;19.73;;;0.20;30.00;;;;;;7359846;19;20732;-67
2023/02/16 06:15:18;;;;;;;35.20;19.30;;;0.20;30.00;;;;;;7385455;19;20039;-65
2023/02/16 06:17:51;;;;;;;32.30;18.58;;;0.20;29.50;;;;;;7358998;19;20018;-66
2023/02/16 06:20:21;;;;;;;33.58;19.27;;;0.20;29.30;;;;;;7358945;19;20021;-66
2023/02/16 06:22:50;;;;;;;34.85;19.50;;;0.20;28.90;;;;;;7358898;19;20010;-66
2023/02/16 06:25:20;;;;;;;28.88;18.30;;;0.20;28.80;;;;;;7362060;19;20019;-66
2023/02/16 06:27:51;;;;;;;30.83;18.17;;;0.20;28.90;;;;;;7359165;19;20011;-66
2023/02/16 06:30:21;;;;;;;32.22;17.23;;;0.30;28.50;;;;;;7382295;19;20370;-66
2023/02/16 06:32:54;;;;;;;31.70;18.48;;;0.20;28.00;;;;;;7356787;19;20513;-66
2023/02/16 06:35:23;;;;;;;35.22;18.33;;;0.20;27.80;;;;;;7358155;19;20078;-66
2023/02/16 06:37:53;;;;;;;27.88;17.80;;;0.30;28.00;;;;;;7358703;19;20494;-66
2023/02/16 06:40:24;;;;;;;35.25;18.83;;;0.30;28.40;;;;;;7357740;19;20015;-67
2023/02/16 06:42:54;;;;;;;34.33;19.25;;;0.40;27.30;;;;;;7358820;19;20055;-66
2023/02/16 06:45:24;;;;;;;32.90;18.45;;;0.40;27.50;;;;;;7385231;19;20508;-66
2023/02/16 06:47:56;;;;;;;29.83;17.55;;;0.50;27.00;;;;;;7360798;19;20019;-66
2023/02/16 06:50:26;;;;;;;33.33;18.10;;;0.60;27.30;;;;;;7357940;19;20046;-66
2023/02/16 06:52:56;;;;;;;30.17;17.27;;;0.60;26.40;;;;;;7358568;19;20486;-66
2023/02/16 06:55:26;;;;;;;31.27;17.98;;;0.70;26.00;;;;;;7360893;19;20490;-66
2023/02/16 06:57:56;;;;;;;33.33;18.65;;;0.70;25.30;;;;;;7358326;19;20011;-66
2023/02/16 07:00:26;;;;;;;32.90;18.45;;;0.80;24.30;;;;;;7377766;19;20019;-66
2023/02/16 07:02:58;;;;;;;30.80;17.98;;;0.80;23.40;;;;;;7358090;19;20014;-67
2023/02/16 07:05:28;;;;;;;31.05;17.85;;;0.90;22.40;;;;;;7358160;19;20494;-66
2023/02/16 07:07:58;;;;;;;30.48;17.02;;;0.90;21.60;;;;;;7358088;19;20087;-67
2023/02/16 07:10:28;;;;;;;30.77;17.33;;;0.90;21.20;;;;;;7356808;19;20466;-67
2023/02/16 07:13:17;;;;;;;26.60;16.38;;;1.00;20.60;;;;;;7356413;19;20014;-66
2023/02/16 07:15:48;;;;;;;28.30;17.00;;;1.00;19.90;;;;;;7360700;19;20355;-66
2023/02/16 07:18:20;;;;;;;30.95;17.80;;;1.10;19.20;;;;;;7386180;19;20118;-65
2023/02/16 07:20:50;;;;;;;30.00;17.70;;;1.20;18.70;;;;;;7363701;19;20469;-66
2023/02/16 07:23:20;;;;;;;31.65;16.63;;;1.20;18.20;;;;;;7365010;19;20080;-67
2023/02/16 07:25:50;;;;;;;35.55;16.98;;;1.30;18.00;;;;;;7366694;19;20029;-66
2023/02/16 07:28:20;;;;;;;28.60;16.58;;;1.30;17.30;;;;;;7364651;19;20014;-65
2023/02/16 07:30:50;;;;;;;31.42;16.65;;;1.30;17.20;;;;;;7361349;19;20021;-68
2023/02/16 07:33:22;;;;;;;25.95;16.75;;;1.40;17.40;;;;;;7383988;19;20842;-66
2023/02/16 07:35:52;;;;;;;33.10;17.42;;;1.60;17.40;;;;;;7363515;19;20019;-67
2023/02/16 07:38:22;;;;;;;26.13;16.00;;;1.70;16.20;;;;;;7364518;19;20018;-67
2023/02/16 07:40:52;;;;;;;27.10;15.70;;;1.70;15.00;;;;;;7364400;19;20540;-66
2023/02/16 07:43:21;;;;;;;27.67;15.93;;;1.80;14.20;;;;;;7364440;19;20021;-67
2023/02/16 07:45:51;;;;;;;25.40;15.35;;;1.90;13.90;;;;;;7368465;19;20019;-66
2023/02/16 07:48:24;;;;;;;26.50;15.68;;;2.00;13.10;;;;;;7389569;19;20021;-68
2023/02/16 07:50:54;;;;;;;32.10;16.48;;;2.10;11.60;;;;;;7363598;19;20126;-66
2023/02/16 07:53:23;;;;;;;29.25;16.77;;;2.20;10.80;;;;;;7365219;19;20022;-66
2023/02/16 07:55:53;;;;;;;27.80;16.02;;;2.30;10.10;;;;;;7365105;19;20006;-67
2023/02/16 07:58:28;;;;;;;29.58;16.17;;;2.30;9.40;;;;;;7362264;19;20015;-67
2023/02/16 08:00:59;;;;;;;29.35;17.00;;;2.50;9.20;;;;;;7362474;19;20018;-67
2023/02/16 08:03:31;;;;;;;30.63;16.67;;;2.60;8.70;;;;;;7385638;19;20014;-66
2023/02/16 08:06:01;;;;;;;28.10;15.88;;;2.70;8.70;;;;;;7363011;19;20019;-66
2023/02/16 08:08:32;;;;;;;26.80;15.13;;;2.70;8.00;;;;;;7362815;19;20014;-67
2023/02/16 08:11:02;;;;;;;25.52;14.85;;;2.80;7.60;;;;;;7362948;19;20082;-68
2023/02/16 08:13:32;;;;;;;30.02;15.77;;;2.90;6.70;;;;;;7361396;19;20014;-67
2023/02/16 08:16:02;;;;;;;26.88;15.75;;;3.00;5.90;;;;;;7363927;19;20021;-66
2023/02/16 08:18:35;;;;;;;26.65;15.68;;;3.10;4.90;;;;;;7384556;19;20102;-66
2023/02/16 08:21:12;;;;;;;35.15;19.60;;;3.20;4.20;;;;;;7364069;19;20025;-66
2023/02/16 08:23:46;;;;;;;30.60;17.70;;;3.40;4.30;;;;;;7365504;19;20097;-67
2023/02/16 08:26:18;;;;;;;23.42;13.75;;;3.50;2.50;;;;;;7361691;19;20018;-66
2023/02/16 08:28:49;;;;;;;28.50;16.35;;;3.60;1.00;;;;;;7362747;19;20018;-66
2023/02/16 08:31:21;;;;;;;27.15;16.05;;;3.70;1.00;;;;;;7363973;19;20078;-67
2023/02/16 08:33:55;;;;;;;26.23;14.85;;;3.80;1.00;;;;;;7362084;19;20462;-66
2023/02/16 08:36:28;;;;;;;26.08;15.50;;;3.80;1.00;;;;;;7387128;19;20011;-68
2023/02/16 08:38:58;;;;;;;24.95;14.25;;;4.00;1.00;;;;;;7365023;19;20014;-66
2023/02/16 08:41:32;;;;;;;26.05;14.52;;;4.10;1.00;;;;;;7361822;19;20566;-66
2023/02/16 08:44:02;;;;;;;21.60;15.27;;;4.20;1.00;;;;;;7362722;19;20809;-66
2023/02/16 08:46:34;;;;;;;27.20;15.48;;;4.30;1.00;;;;;;7363304;19;20010;-68
2023/02/16 08:49:07;;;;;;;28.85;15.32;;;4.40;1.00;;;;;;7361483;19;20026;-67
2023/02/16 08:51:41;;;;;;;22.13;15.30;;;4.40;1.00;;;;;;7361772;19;20028;-67
2023/02/16 08:54:16;;;;;;;26.17;14.82;;;4.60;1.00;;;;;;7384533;19;20021;-67
2023/02/16 08:56:48;;;;;;;30.55;15.55;;;4.60;1.00;;;;;;7360761;19;20018;-67
2023/02/16 08:59:19;;;;;;;27.33;15.65;;;4.70;1.00;;;;;;7359882;19;20010;-68
2023/02/16 09:01:49;;;;;;;23.75;15.27;;;4.80;1.00;;;;;;7362602;19;20377;-68
2023/02/16 09:04:23;;;;;;;30.17;15.82;;;4.80;1.00;;;;;;7362460;19;20687;-66
2023/02/16 09:06:53;;;;;;;29.00;14.98;;;5.00;1.00;;;;;;7362189;19;20352;-67
2023/02/16 09:09:25;;;;;;;30.98;16.40;;;5.10;1.00;;;;;;7382178;19;20022;-67
2023/02/16 09:11:56;;;;;;;26.13;15.40;;;5.20;1.00;;;;;;7361206;19;20546;-68
2023/02/16 09:14:26;;;;;;;27.02;16.38;;;5.30;1.00;;;;;;7361490;19;20010;-66
2023/02/16 09:16:56;;;;;;;22.45;15.13;;;5.50;1.00;;;;;;7362353;19;20010;-67
2023/02/16 09:19:29;;;;;;;30.42;17.35;;;5.60;1.00;;;;;;7362595;19;20014;-68
2023/02/16 09:21:59;;;;;;;27.85;15.13;;;5.70;1.00;;;;;;7365034;19;20122;-66
2023/02/16 09:24:29;;;;;;;26.40;16.05;;;5.80;1.00;;;;;;7383264;19;20532;-67
2023/02/16 09:26:58;;;;;;;25.10;15.95;;;6.00;1.00;;;;;;7360776;19;20006;-68
2023/02/16 09:29:28;;;;;;;24.15;15.02;;;6.10;1.00;;;;;;7362112;19;20023;-67
2023/02/16 09:31:58;;;;;;;24.55;15.38;;;6.20;1.00;;;;;;7361651;19;20021;-68
2023/02/16 09:34:31;;;;;;;21.27;15.23;;;6.30;1.00;;;;;;7360527;19;20014;-67
2023/02/16 09:37:00;;;;;;;25.40;15.70;;;6.40;1.00;;;;;;7360275;19;20355;-68
2023/02/16 09:39:30;;;;;;;28.15;16.02;;;6.50;1.00;;;;;;7378640;19;20014;-67
2023/02/16 09:42:18;;;;;;;28.58;15.40;;;6.60;1.00;;;;;;7359992;19;20375;-67
2023/02/16 09:44:55;;;;;;;24.75;14.85;;;6.80;1.00;;;;;;7361466;19;20006;-67
2023/02/16 09:47:29;;;;;;;22.80;14.88;;;7.00;1.00;;;;;;7361964;19;20025;-67
2023/02/16 09:50:05;;;;;;;45.22;26.30;;;7.10;1.00;;;;;;7359086;19;20028;-68
2023/02/16 09:52:39;;;;;;;29.60;16.15;;;7.20;1.00;;;;;;7360748;19;20067;-67
2023/02/16 09:55:14;;;;;;;28.83;15.20;;;7.40;1.00;;;;;;7360520;19;20035;-68
2023/02/16 09:57:55;;;;;;;26.48;16.20;;;7.50;1.00;;;;;;7359084;19;20100;-67
2023/02/16 10:00:45;;;;;;;25.42;14.73;;;7.70;1.00;;;;;;7378785;19;20042;-67
2023/02/16 10:03:30;;;;;;;26.05;15.30;;;7.80;1.00;;;;;;7359148;19;20014;-67
2023/02/16 10:06:24;;;;;;;22.70;15.52;;;7.90;1.00;;;;;;7362089;19;20010;-66
2023/02/16 10:08:59;;;;;;;22.80;14.32;;;8.10;1.00;;;;;;7358589;19;20015;-68
2023/02/16 10:11:40;;;;;;;23.55;14.57;;;8.20;1.00;;;;;;7359169;19;20018;-68
2023/02/16 10:14:20;;;;;;;25.30;14.25;;;8.30;1.00;;;;;;7358594;19;20064;-67
2023/02/16 10:16:55;;;;;;;26.05;15.32;;;8.50;1.00;;;;;;7360992;19;20020;-67
2023/02/16 10:19:30;;;;;;;32.50;15.02;;;8.60;1.00;;;;;;7358534;19;20014;-66
2023/02/16 10:22:08;;;;;;;30.92;15.57;;;8.70;1.00;;;;;;7359602;19;20505;-67
2023/02/16 10:24:44;;;;;;;28.83;14.88;;;8.80;1.00;;;;;;7359398;19;20077;-68
2023/02/16 10:27:17;;;;;;;24.55;14.32;;;8.90;1.00;;;;;;7379939;19;20025;-67
2023/02/16 10:29:47;;;;;;;26.33;15.55;;;8.90;1.00;;;;;;7360731;19;20091;-68
2023/02/16 10:32:27;;;;;;;27.27;14.90;;;9.10;1.00;;;;;;7358374;19;20367;-68
2023/02/16 10:35:07;;;;;;;28.10;14.68;;;9.10;1.00;;;;;;7359745;19;20017;-67
2023/02/16 10:38:00;;;;;;;26.60;15.77;;;9.30;1.00;;;;;;7359551;19;20022;-68
2023/02/16 10:40:40;;;;;;;27.27;15.15;;;9.40;1.00;;;;;;7357563;19;20014;-68
2023/02/16 10:43:19;;;;;;;26.73;15.13;;;9.50;1.00;;;;;;7358520;19;20021;-68
2023/02/16 10:45:52;;;;;;;24.60;13.95;;;9.60;1.00;;;;;;7360822;19;20018;-68
2023/02/16 10:48:25;;;;;;;19.95;13.50;;;9.70;1.00;;;;;;7383495;19;20025;-68
2023/02/16 10:51:00;;;;;;;28.92;15.43;;;9.90;1.00;;;;;;7360422;19;20019;-68
2023/02/16 10:53:40;;;;;;;27.42;14.23;;;9.90;1.00;;;;;;7367288;19;20046;-67
2023/02/16 10:56:38;;;;;;;29.33;15.52;;;10.00;1.00;;;;;;7365267;19;20015;-68
2023/02/16 10:59:15;;;;;;;24.75;13.52;;;10.10;1.00;;;;;;7364427;19;20022;-68
2023/02/16 11:01:47;;;;;;;27.52;13.93;;;10.20;1.00;;;;;;7365806;19;20044;-67
2023/02/16 11:04:42;;;;;;;21.40;13.57;;;10.40;1.00;;;;;;7364450;19;20495;-67
2023/02/16 11:07:14;;;;;;;28.52;13.15;;;10.50;1.00;;;;;;7365924;19;20025;-68
2023/02/16 11:09:49;;;;;;;30.38;14.18;;;10.60;1.00;;;;;;7364900;19;20342;-68
2023/02/16 11:12:27;;;;;;;18.08;12.18;;;10.70;1.00;;;;;;7391530;19;20508;-67
2023/02/16 11:15:02;;;;;;;21.90;12.60;;;10.70;1.00;;;;;;7363469;19;20011;-67
2023/02/16 11:17:34;;;;;;;28.77;10.75;;;10.90;1.00;;;;;;7364781;19;20010;-68
2023/02/16 11:20:09;;;;;;;17.80;10.38;;;11.10;1.00;;;;;;7364919;19;20014;-69
2023/02/16 11:22:41;;;;;;;18.88;11.02;;;11.20;1.00;;;;;;7365389;19;20010;-68
2023/02/16 11:25:27;;;;;;;23.55;11.27;;;11.20;1.00;;;;;;7364460;19;20015;-68
2023/02/16 11:28:00;;;;;;;23.42;11.20;;;11.20;1.00;;;;;;7364621;19;20052;-69
2023/02/16 11:30:34;;;;;;;14.68;9.90;;;11.20;1.00;;;;;;7388586;19;20027;-67
2023/02/16 11:33:06;;;;;;;21.98;10.65;;;11.50;1.00;;;;;;7363854;19;20317;-67
2023/02/16 11:35:44;;;;;;;18.45;9.68;;;11.60;1.00;;;;;;7365795;19;20010;-67
2023/02/16 11:38:32;;;;;;;17.13;8.85;;;11.60;1.00;;;;;;7364584;19;20014;-68
2023/02/16 11:41:07;;;;;;;11.80;7.78;;;11.70;1.00;;;;;;7363984;19;20030;-67
2023/02/16 11:43:40;;;;;;;11.45;7.72;;;11.90;1.00;;;;;;7364359;19;20035;-67
2023/02/16 11:46:16;;;;;;;14.77;7.75;;;11.90;1.00;;;;;;7366392;19;20043;-68
2023/02/16 11:48:46;;;;;;;14.20;7.68;;;11.90;1.00;;;;;;7364095;19;20014;-68
2023/02/16 11:51:30;;;;;;;13.30;7.63;;;11.90;1.00;;;;;;7385413;19;20339;-69
2023/02/16 11:54:08;;;;;;;12.77;8.30;;;11.90;1.00;;;;;;7364147;19;20010;-67
2023/02/16 11:56:40;;;;;;;17.08;8.05;;;12.00;1.00;;;;;;7363799;19;20014;-69
2023/02/16 11:59:17;;;;;;;15.00;8.10;;;12.20;1.00;;;;;;7362149;19;20046;-68
2023/02/16 12:02:29;;;;;;;18.08;8.07;;;12.30;1.00;;;;;;7362563;19;20010;-67
2023/02/16 12:05:11;;;;;;;9.82;6.55;;;12.40;1.00;;;;;;7364071;19;20479;-68
2023/02/16 12:07:49;;;;;;;11.73;6.68;;;12.50;1.00;;;;;;7366341;19;20013;-66
2023/02/16 12:10:26;;;;;;;14.13;6.53;;;12.70;1.00;;;;;;7364301;19;20078;-67
2023/02/16 12:13:05;;;;;;;13.13;6.53;;;12.80;1.00;;;;;;7361749;19;20070;-68
2023/02/16 12:15:43;;;;;;;8.88;5.85;;;12.80;1.00;;;;;;7377246;19;20467;-69
2023/02/16 12:18:26;;;;;;;17.15;7.60;;;13.00;1.00;;;;;;7389016;19;20061;-68
2023/02/16 12:21:03;;;;;;;12.15;6.53;;;12.90;1.00;;;;;;7363479;19;20358;-68
2023/02/16 12:23:41;;;;;;;11.52;6.13;;;12.90;1.00;;;;;;7365298;19;20030;-68
2023/02/16 12:26:38;;;;;;;11.27;7.00;;;12.90;1.00;;;;;;7363242;19;20021;-67
2023/02/16 12:29:23;;;;;;;12.05;7.45;;;13.20;1.00;;;;;;7364207;19;20082;-66
2023/02/16 12:32:21;;;;;;;11.05;7.57;;;13.00;1.00;;;;;;7362901;19;20020;-68
2023/02/16 12:35:01;;;;;;;10.82;7.35;;;13.00;1.00;;;;;;7362246;19;20014;-67
2023/02/16 12:37:38;;;;;;;10.93;7.00;;;13.20;1.00;;;;;;7360247;19;20067;-66
2023/02/16 12:40:20;;;;;;;13.57;6.75;;;13.50;1.00;;;;;;7360226;19;20198;-68
2023/02/16 12:43:03;;;;;;;15.40;8.45;;;13.40;1.00;;;;;;7362282;19;20010;-68
2023/02/16 12:45:41;;;;;;;11.48;6.97;;;13.10;1.00;;;;;;7385418;19;20022;-68
2023/02/16 12:48:30;;;;;;;12.88;7.75;;;13.10;1.00;;;;;;7364996;19;20006;-67
2023/02/16 12:51:03;;;;;;;14.60;8.38;;;13.30;1.00;;;;;;7359011;19;20017;-66
2023/02/16 12:53:43;;;;;;;19.08;9.10;;;13.20;1.00;;;;;;7360423;19;20411;-67
2023/02/16 12:56:19;;;;;;;14.80;8.65;;;13.20;1.00;;;;;;7363159;19;20014;-69
2023/02/16 12:58:54;;;;;;;12.73;8.57;;;13.00;1.00;;;;;;7359572;19;20597;-67
2023/02/16 13:01:29;;;;;;;13.88;9.32;;;13.20;1.00;;;;;;7359985;19;20007;-67
2023/02/16 13:04:05;;;;;;;15.50;8.98;;;13.30;1.00;;;;;;7363986;19;20018;-67
2023/02/16 13:06:45;;;;;;;13.45;8.07;;;13.20;1.00;;;;;;7375479;19;20019;-68
2023/02/16 13:09:26;;;;;;;13.18;8.55;;;13.40;1.00;;;;;;7378889;19;20025;-67
2023/02/16 13:12:01;;;;;;;13.18;8.18;;;13.50;1.00;;;;;;7357660;19;20025;-67
2023/02/16 13:14:35;;;;;;;17.20;8.50;;;13.40;1.00;;;;;;7360929;19;20137;-67
2023/02/16 13:17:13;;;;;;;17.13;8.25;;;13.40;1.00;;;;;;7359300;19;20022;-68
2023/02/16 13:19:45;;;;;;;17.05;8.15;;;13.30;1.00;;;;;;7358124;19;20267;-67
2023/02/16 13:22:51;;;;;;;13.18;7.47;;;13.50;1.00;;;;;;7362366;19;20014;-67
2023/02/16 13:25:36;;;;;;;11.25;7.22;;;13.50;1.00;;;;;;7361558;19;20015;-69
2023/02/16 13:28:15;;;;;;;;;;;13.50;1.00;;;;;;7361915;19;20010;-68
2023/02/16 13:31:03;;;;;;;11.10;7.50;;;13.40;1.00;;;;;;7358615;19;19918;-67
2023/02/16 13:33:52;;;;;;;10.70;7.43;;;13.30;1.00;;;;;;7385899;19;20427;-67
2023/02/16 13:36:44;;;;;;;11.45;7.43;;;13.10;1.00;;;;;;7361128;19;20018;-68
2023/02/16 13:39:30;;;;;;;10.68;7.60;;;13.20;1.00;;;;;;7358958;19;20015;-68
2023/02/16 13:42:16;;;;;;;13.50;7.05;;;13.30;1.00;;;;;;7360200;19;20521;-68
2023/02/16 13:44:50;;;;;;;11.07;7.65;;;13.30;1.00;;;;;;7359036;19;20131;-67
2023/02/16 13:47:25;;;;;;;10.05;7.28;;;13.10;1.00;;;;;;7361246;19;20011;-67
2023/02/16 13:50:01;;;;;;;15.23;7.15;;;13.10;1.00;;;;;;7357694;19;20010;-68
2023/02/16 13:52:35;;;;;;;16.48;8.05;;;13.10;1.00;;;;;;7360238;19;20021;-67
2023/02/16 13:55:09;;;;;;;12.82;7.45;;;13.20;1.00;;;;;;7359717;19;20015;-66
2023/02/16 13:58:01;;;;;;;13.23;7.72;;;13.20;1.00;;;;;;7358637;19;20018;-67
2023/02/16 14:00:35;;;;;;;11.38;7.43;;;13.20;1.00;;;;;;7380774;19;20018;-68
2023/02/16 14:03:12;;;;;;;11.77;7.90;;;13.20;1.00;;;;;;7356686;19;20134;-66